Time;durP1;ratioP1;P1;durP2;ratioP2;P2;SDS_P1;SDS_P2;PMS_P1;PMS_P2;Temp;Humidity;BMP_temperature;BMP_pressure;BME280_temperature;BME280_humidity;BME280_pressure;Samples;Min_cycle;Max_cycle;Signal;HPM_P1;HPM_P2
2021/08/22 00:01:41;;;;;;;27.63;10.82;;;;;;;17.59;70.81;99178.13;5113352;28;20050;-74
2021/08/22 00:04:07;;;;;;;28.00;11.60;;;;;;;17.55;71.11;99180.31;5113312;28;20035;-75
2021/08/22 00:06:33;;;;;;;24.63;11.55;;;;;;;17.50;71.36;99184.56;5113023;28;20065;-75
2021/08/22 00:08:59;;;;;;;25.35;11.25;;;;;;;17.41;71.21;99178.41;5113281;28;20428;-78
2021/08/22 00:11:24;;;;;;;24.73;10.85;;;;;;;17.35;71.74;99177.25;5111711;28;20547;-75
2021/08/22 00:13:50;;;;;;;28.20;11.77;;;;;;;17.26;71.93;99181.81;5112794;28;20035;-77
2021/08/22 00:16:16;;;;;;;31.38;12.70;;;;;;;17.14;72.67;99189.38;5112556;28;20043;-74
2021/08/22 00:18:42;;;;;;;27.55;11.82;;;;;;;17.05;72.95;99179.72;5112677;28;20123;-76
2021/08/22 00:21:07;;;;;;;27.13;11.77;;;;;;;17.05;72.78;99178.91;5112198;28;20051;-77
2021/08/22 00:23:33;;;;;;;22.52;11.25;;;;;;;17.02;72.86;99180.06;5112955;28;20488;-75
2021/08/22 00:25:59;;;;;;;26.52;11.55;;;;;;;16.95;73.12;99182.59;5112457;28;20043;-77
2021/08/22 00:28:25;;;;;;;28.30;12.45;;;;;;;16.91;73.42;99191.09;5112354;28;20519;-76
2021/08/22 00:30:51;;;;;;;28.33;12.63;;;;;;;16.87;73.40;99187.09;5112542;28;20036;-77
2021/08/22 00:33:17;;;;;;;33.05;13.32;;;;;;;16.82;73.50;99184.94;5112365;28;20043;-74
2021/08/22 00:35:43;;;;;;;23.65;12.13;;;;;;;16.78;73.66;99187.09;5112450;28;20055;-74
2021/08/22 00:38:09;;;;;;;25.60;12.18;;;;;;;16.72;74.16;99190.47;5112760;28;20127;-77
2021/08/22 00:40:34;;;;;;;29.35;12.80;;;;;;;16.61;74.63;99189.00;5112060;28;20046;-76
2021/08/22 00:43:07;;;;;;;27.65;12.18;;;;;;;16.55;74.89;99186.16;5112398;28;20055;-80
2021/08/22 00:45:33;;;;;;;28.85;12.30;;;;;;;16.45;75.43;99194.38;5111000;28;20054;-77
2021/08/22 00:47:59;;;;;;;28.38;12.70;;;;;;;16.44;75.33;99192.69;5112352;28;20051;-75
2021/08/22 00:50:25;;;;;;;27.35;12.50;;;;;;;16.43;75.33;99196.38;5111461;28;20047;-75
2021/08/22 00:52:52;;;;;;;22.55;11.48;;;;;;;16.40;75.47;99196.69;5112273;28;20084;-74
2021/08/22 00:55:18;;;;;;;;;;;;;;;16.39;75.26;99201.19;5112425;28;20054;-75
2021/08/22 00:57:44;;;;;;;23.63;10.93;;;;;;;16.32;75.28;99195.72;5112251;28;19917;-74
2021/08/22 01:00:12;;;;;;;30.13;12.38;;;;;;;16.28;75.42;99199.69;5111840;28;20044;-74
2021/08/22 01:02:57;;;;;;;24.27;12.43;;;;;;;16.21;75.79;99201.34;5111958;28;20479;-74
2021/08/22 01:05:47;;;;;;;26.65;13.55;;;;;;;16.15;75.85;99199.38;5111938;28;20046;-74
2021/08/22 01:08:19;;;;;;;30.05;13.93;;;;;;;16.09;75.70;99200.03;5110538;28;20047;-74
2021/08/22 01:10:45;;;;;;;32.33;13.32;;;;;;;16.00;75.93;99196.53;5112098;28;20061;-76
2021/08/22 01:13:16;;;;;;;34.00;13.25;;;;;;;15.98;75.88;99204.69;5111773;28;20062;-75
2021/08/22 01:15:44;;;;;;;30.65;13.20;;;;;;;15.91;75.68;99203.66;5110814;28;20086;-74
2021/08/22 01:18:15;;;;;;;28.15;12.73;;;;;;;15.89;75.68;99197.69;5110552;28;20461;-77
2021/08/22 01:21:08;;;;;;;20.40;11.80;;;;;;;15.88;75.57;99198.69;5110388;28;20062;-75
2021/08/22 01:23:37;;;;;;;27.33;12.35;;;;;;;15.82;75.73;99188.66;5111672;28;20044;-75
2021/08/22 01:26:05;;;;;;;27.38;12.55;;;;;;;15.80;75.42;99194.13;5111871;28;20042;-75
2021/08/22 01:28:30;;;;;;;23.15;12.73;;;;;;;15.74;75.42;99191.28;5110312;28;20058;-75
2021/08/22 01:31:01;;;;;;;26.30;12.65;;;;;;;15.68;75.58;99184.78;5112014;28;20044;-78
2021/08/22 01:33:31;;;;;;;30.30;13.68;;;;;;;15.67;75.52;99186.59;5111462;28;20523;-75
2021/08/22 01:35:58;;;;;;;31.23;13.98;;;;;;;15.67;75.40;99191.09;5110447;28;20574;-75
2021/08/22 01:38:24;;;;;;;32.60;13.90;;;;;;;15.65;75.16;99195.75;5110218;28;20039;-76
2021/08/22 01:40:51;;;;;;;26.70;13.80;;;;;;;15.60;75.19;99196.28;5110237;28;20072;-74
2021/08/22 01:43:17;;;;;;;28.27;13.65;;;;;;;15.55;75.36;99203.06;5111354;28;20048;-75
2021/08/22 01:45:44;;;;;;;38.37;15.57;;;;;;;15.53;75.31;99195.25;5111631;28;20043;-74
2021/08/22 01:48:13;;;;;;;29.70;14.40;;;;;;;15.49;75.22;99194.72;5110157;28;20637;-75
2021/08/22 01:50:39;;;;;;;27.63;13.65;;;;;;;15.44;75.23;99196.19;5111617;28;20043;-74
2021/08/22 01:53:06;;;;;;;25.17;13.65;;;;;;;15.40;75.28;99189.53;5111292;28;20103;-73
2021/08/22 01:55:32;;;;;;;26.98;14.15;;;;;;;15.37;75.37;99190.69;5109932;28;20050;-77
2021/08/22 01:57:58;;;;;;;27.73;14.57;;;;;;;15.33;75.33;99192.84;5111547;28;20044;-74
2021/08/22 02:00:24;;;;;;;35.22;15.48;;;;;;;15.35;75.53;99195.34;5109325;28;20447;-75
2021/08/22 02:03:10;;;;;;;38.63;14.02;;;;;;;15.36;75.15;99195.19;5109499;28;20092;-73
2021/08/22 02:05:39;;;;;;;27.60;13.70;;;;;;;15.37;75.02;99202.16;5113207;28;20126;-75
2021/08/22 02:08:15;;;;;;;30.45;13.82;;;;;;;15.35;74.97;99201.53;5115124;28;20050;-77
2021/08/22 02:10:51;;;;;;;27.38;13.02;;;;;;;15.36;75.03;99197.00;5115153;28;20047;-76
2021/08/22 02:13:17;;;;;;;27.85;12.55;;;;;;;15.36;75.04;99194.34;5113843;28;20579;-73
2021/08/22 02:15:44;;;;;;;25.15;12.32;;;;;;;15.32;75.65;99199.16;5115258;28;20039;-74
2021/08/22 02:18:12;;;;;;;22.90;12.95;;;;;;;15.30;75.12;99185.19;5115001;28;20505;-75
2021/08/22 02:20:45;;;;;;;27.55;13.77;;;;;;;15.33;75.16;99200.00;5114525;28;20569;-74
2021/08/22 02:23:12;;;;;;;26.90;13.20;;;;;;;15.33;74.85;99195.50;5115039;28;20047;-76
2021/08/22 02:25:38;;;;;;;28.25;13.07;;;;;;;15.34;74.76;99197.19;5113295;28;20042;-74
2021/08/22 02:28:04;;;;;;;24.15;12.57;;;;;;;15.35;75.00;99204.19;5113791;28;20396;-73
2021/08/22 02:30:34;;;;;;;24.10;13.30;;;;;;;15.29;75.33;99202.16;5114158;28;20043;-74
2021/08/22 02:33:05;;;;;;;28.10;13.05;;;;;;;15.24;75.76;99199.16;5114877;28;20040;-75
2021/08/22 02:35:31;;;;;;;26.02;12.93;;;;;;;15.16;76.35;99196.44;5114428;28;20043;-75
2021/08/22 02:37:57;;;;;;;28.75;12.88;;;;;;;15.11;76.63;99206.75;5114550;28;20424;-76
2021/08/22 02:40:23;;;;;;;28.52;12.75;;;;;;;15.07;76.52;99197.41;5113771;28;20507;-76
2021/08/22 02:42:49;;;;;;;34.13;15.80;;;;;;;15.02;76.92;99205.88;5114683;28;20047;-75
2021/08/22 02:45:15;;;;;;;28.38;14.88;;;;;;;14.95;77.62;99202.97;5114593;28;20044;-74
2021/08/22 02:47:41;;;;;;;35.03;16.38;;;;;;;14.89;78.40;99208.94;5114308;28;20047;-74
2021/08/22 02:50:07;;;;;;;27.85;14.43;;;;;;;14.92;78.45;99213.97;5114152;28;20664;-73
2021/08/22 02:52:33;;;;;;;36.22;14.98;;;;;;;14.98;78.30;99205.34;5114411;28;20032;-74
2021/08/22 02:54:59;;;;;;;30.65;15.85;;;;;;;15.04;77.94;99206.53;5114613;28;20042;-73
2021/08/22 02:57:24;;;;;;;31.20;15.45;;;;;;;15.03;78.22;99211.03;5114163;28;20054;-75
2021/08/22 02:59:50;;;;;;;33.25;16.63;;;;;;;15.00;78.34;99216.69;5114453;28;20074;-76
2021/08/22 03:02:16;;;;;;;38.33;16.85;;;;;;;15.02;78.43;99219.19;5114275;28;20040;-78
2021/08/22 03:04:42;;;;;;;31.35;15.95;;;;;;;15.04;78.45;99212.69;5112749;28;20392;-75
2021/08/22 03:07:08;;;;;;;34.47;15.88;;;;;;;15.03;78.57;99221.69;5114113;27;20066;-75
2021/08/22 03:09:33;;;;;;;37.97;16.98;;;;;;;14.97;78.59;99224.97;5113973;28;20035;-74
2021/08/22 03:11:59;;;;;;;38.63;17.75;;;;;;;14.93;78.79;99231.63;5114013;28;20052;-75
2021/08/22 03:14:25;;;;;;;34.13;16.58;;;;;;;14.91;78.82;99230.09;5113311;28;20115;-73
2021/08/22 03:16:51;;;;;;;31.58;16.63;;;;;;;14.91;78.90;99233.59;5114049;28;20397;-74
2021/08/22 03:19:17;;;;;;;46.88;17.63;;;;;;;14.88;78.48;99224.09;5114171;28;20055;-74
2021/08/22 03:21:45;;;;;;;37.60;16.65;;;;;;;14.87;78.40;99232.25;5113527;27;20055;-76
2021/08/22 03:24:12;;;;;;;34.50;17.00;;;;;;;14.85;78.34;99237.75;5113836;28;20381;-75
2021/08/22 03:26:38;;;;;;;32.80;16.17;;;;;;;14.81;78.33;99248.84;5113469;28;20050;-75
2021/08/22 03:29:04;;;;;;;32.97;15.82;;;;;;;14.82;78.52;99253.19;5113815;28;20048;-74
2021/08/22 03:31:30;;;;;;;29.08;15.65;;;;;;;14.87;78.44;99253.56;5113252;28;20443;-75
2021/08/22 03:33:56;;;;;;;34.35;18.52;;;;;;;14.98;78.07;99247.97;5113741;28;20404;-74
2021/08/22 03:36:22;;;;;;;37.58;14.55;;;;;;;15.13;77.53;99252.72;5111690;28;20051;-74
2021/08/22 03:38:48;;;;;;;31.85;13.52;;;;;;;15.23;76.93;99248.09;5113627;28;20458;-75
2021/08/22 03:41:13;;;;;;;31.52;12.75;;;;;;;15.26;76.58;99253.09;5113089;28;20035;-73
2021/08/22 03:43:39;;;;;;;22.15;12.85;;;;;;;15.36;76.24;99244.97;5112833;28;20074;-75
2021/08/22 03:46:05;;;;;;;27.65;12.02;;;;;;;15.50;75.66;99239.06;5113207;28;20070;-76
2021/08/22 03:48:31;;;;;;;25.73;12.07;;;;;;;15.61;74.85;99239.75;5112938;28;20081;-74
2021/08/22 03:50:57;;;;;;;23.58;12.07;;;;;;;15.72;74.47;99246.63;5113471;28;20063;-76
2021/08/22 03:53:22;;;;;;;23.80;12.55;;;;;;;15.80;73.96;99241.28;5112996;28;20095;-74
2021/08/22 03:55:48;;;;;;;23.70;10.82;;;;;;;15.88;73.63;99244.00;5113326;28;20511;-77
2021/08/22 03:58:14;;;;;;;25.52;12.05;;;;;;;15.98;73.38;99247.34;5112971;28;20044;-78
2021/08/22 04:00:40;;;;;;;21.38;10.93;;;;;;;16.14;72.92;99240.41;5112819;28;20036;-74
2021/08/22 04:03:06;;;;;;;21.27;10.85;;;;;;;16.21;72.30;99240.56;5113288;28;20051;-75
2021/08/22 04:05:50;;;;;;;24.50;10.85;;;;;;;16.36;71.88;99244.22;5112954;28;20376;-76
2021/08/22 04:08:20;;;;;;;17.08;10.60;;;;;;;16.52;71.18;99243.38;5113131;28;20040;-75
2021/08/22 04:10:46;;;;;;;19.70;10.90;;;;;;;17.10;69.74;99240.69;5112450;28;20052;-75
2021/08/22 04:13:12;;;;;;;17.98;10.15;;;;;;;18.64;64.64;99237.44;5112598;28;20042;-77
2021/08/22 04:15:37;;;;;;;22.88;10.48;;;;;;;19.92;60.67;99229.28;5111181;28;20039;-75
2021/08/22 04:18:03;;;;;;;23.73;10.18;;;;;;;20.92;56.65;99229.34;5112658;28;20042;-75
2021/08/22 04:20:29;;;;;;;17.23;9.90;;;;;;;21.89;54.54;99234.78;5112116;28;20098;-77
2021/08/22 04:22:55;;;;;;;20.73;9.77;;;;;;;22.82;51.60;99236.72;5112848;28;20512;-75
2021/08/22 04:25:21;;;;;;;15.10;8.77;;;;;;;23.86;48.99;99228.75;5111791;28;20039;-74
2021/08/22 04:27:46;;;;;;;18.48;9.88;;;;;;;24.42;46.94;99241.69;5112459;28;20047;-76
2021/08/22 04:30:13;;;;;;;15.48;9.80;;;;;;;25.27;45.09;99233.00;5112598;28;20091;-77
2021/08/22 04:32:39;;;;;;;16.35;10.00;;;;;;;26.10;43.16;99232.63;5112104;28;20044;-79
2021/08/22 04:35:06;;;;;;;15.07;9.70;;;;;;;25.50;43.56;99234.22;5111239;28;20502;-76
2021/08/22 04:37:33;;;;;;;16.33;10.05;;;;;;;24.38;45.54;99244.00;5112230;28;20040;-75
2021/08/22 04:39:59;;;;;;;18.25;10.25;;;;;;;22.97;48.35;99243.75;5112755;28;20036;-74
2021/08/22 04:42:26;;;;;;;15.07;9.52;;;;;;;22.01;50.83;99249.31;5112290;28;20039;-78
2021/08/22 04:44:52;;;;;;;17.63;9.27;;;;;;;21.53;52.56;99265.47;5112359;28;20515;-78
2021/08/22 04:47:17;;;;;;;16.83;8.98;;;;;;;21.33;53.42;99260.81;5112575;27;20047;-76
2021/08/22 04:49:43;;;;;;;19.33;10.00;;;;;;;20.79;54.59;99255.09;5112382;28;20043;-76
2021/08/22 04:52:09;;;;;;;18.48;9.52;;;;;;;20.44;55.55;99264.91;5112603;28;20047;-78
2021/08/22 04:54:35;;;;;;;17.45;9.35;;;;;;;20.20;56.52;99270.47;5111984;28;20126;-75
2021/08/22 04:57:01;;;;;;;60.97;29.92;;;;;;;19.90;57.55;99274.25;5112165;28;20389;-76
2021/08/22 04:59:26;;;;;;;19.70;10.23;;;;;;;19.62;58.58;99280.31;5112112;28;20093;-74
2021/08/22 05:01:52;;;;;;;20.10;9.88;;;;;;;19.48;59.15;99285.50;5111697;28;20047;-74
2021/08/22 05:04:18;;;;;;;18.48;9.95;;;;;;;19.28;59.84;99282.53;5111989;28;20045;-78
2021/08/22 05:06:44;;;;;;;21.75;10.52;;;;;;;19.26;60.32;99289.13;5112069;28;20126;-75
2021/08/22 05:09:09;;;;;;;18.65;10.80;;;;;;;19.21;60.61;99285.13;5112146;28;20488;-77
2021/08/22 05:11:35;;;;;;;28.95;17.23;;;;;;;19.21;60.70;99285.13;5111909;28;20080;-75
2021/08/22 05:14:01;;;;;;;21.30;10.88;;;;;;;19.08;61.16;99293.00;5112028;28;20475;-76
2021/08/22 05:16:27;;;;;;;21.42;10.60;;;;;;;18.94;61.61;99296.47;5112320;28;20138;-76
2021/08/22 05:18:53;;;;;;;24.83;11.25;;;;;;;18.82;62.11;99299.56;5112186;28;20138;-77
2021/08/22 05:21:18;;;;;;;28.83;11.68;;;;;;;18.70;62.74;99303.69;5111756;28;20545;-76
2021/08/22 05:23:44;;;;;;;24.45;11.45;;;;;;;18.68;63.10;99311.06;5110332;28;20075;-75
2021/08/22 05:26:10;;;;;;;21.77;10.70;;;;;;;18.78;62.82;99305.44;5112298;28;20474;-75
2021/08/22 05:28:36;;;;;;;24.30;11.43;;;;;;;18.65;63.84;99311.44;5111846;28;20035;-78
2021/08/22 05:31:02;;;;;;;30.92;10.27;;;;;;;18.59;63.85;99311.13;5111994;28;20039;-76
2021/08/22 05:33:28;;;;;;;21.63;9.60;;;;;;;18.64;63.76;99309.75;5112046;28;20086;-76
2021/08/22 05:35:54;;;;;;;27.42;9.50;;;;;;;18.69;63.55;99305.53;5112096;28;20127;-74
2021/08/22 05:38:22;;;;;;;19.83;9.65;;;;;;;18.54;63.77;99321.56;5115821;28;20429;-78
2021/08/22 05:40:48;;;;;;;18.35;9.45;;;;;;;18.58;64.08;99309.47;5115914;28;20044;-80
2021/08/22 05:43:14;;;;;;;26.45;9.40;;;;;;;18.58;64.11;99312.16;5116691;27;20067;-78
2021/08/22 05:45:40;;;;;;;15.73;8.32;;;;;;;18.70;63.88;99311.72;5115792;28;20130;-78
2021/08/22 05:48:05;;;;;;;16.88;8.32;;;;;;;18.53;64.33;99324.41;5115743;28;20097;-75
2021/08/22 05:50:31;;;;;;;14.13;6.85;;;;;;;18.53;64.38;99322.56;5116355;28;20099;-77
2021/08/22 05:52:57;;;;;;;14.80;7.03;;;;;;;18.64;64.30;99312.44;5119564;28;20050;-75
2021/08/22 05:55:23;;;;;;;13.15;6.78;;;;;;;18.56;64.28;99329.41;5119596;28;20096;-78
2021/08/22 05:57:48;;;;;;;16.08;6.68;;;;;;;18.49;64.53;99321.28;5118488;28;20130;-80
2021/08/22 06:00:14;;;;;;;12.70;6.85;;;;;;;18.45;64.59;99327.97;5115417;28;20039;-76
2021/08/22 06:02:40;;;;;;;23.10;10.27;;;;;;;18.37;64.76;99326.19;5116259;27;20083;-80
2021/08/22 06:05:07;;;;;;;13.63;6.68;;;;;;;18.24;65.13;99313.41;5115625;28;20150;-76
2021/08/22 06:07:33;;;;;;;13.73;6.63;;;;;;;18.18;65.24;99324.81;5097272;28;20040;-77
2021/08/22 06:09:59;;;;;;;12.70;6.10;;;;;;;18.08;65.82;99329.53;5116248;28;20044;-77
2021/08/22 06:12:25;;;;;;;11.27;6.18;;;;;;;18.05;65.71;99325.38;5116148;28;20103;-76
2021/08/22 06:14:52;;;;;;;12.60;6.30;;;;;;;18.06;65.91;99326.22;5115548;28;20539;-76
2021/08/22 06:17:17;;;;;;;14.73;5.90;;;;;;;18.21;65.89;99324.44;5115355;28;20168;-79
2021/08/22 06:19:43;;;;;;;12.50;6.50;;;;;;;18.31;65.68;99334.09;5114045;28;20130;-75
2021/08/22 06:22:09;;;;;;;16.50;6.40;;;;;;;18.22;66.51;99334.16;5115017;28;20048;-75
2021/08/22 06:24:35;;;;;;;14.85;7.57;;;;;;;17.93;67.76;99343.63;5114934;28;20047;-80
2021/08/22 06:27:01;;;;;;;10.65;7.18;;;;;;;17.90;68.28;99335.94;5114938;28;20047;-77
2021/08/22 06:29:29;;;;;;;18.00;8.68;;;;;;;17.83;68.63;99337.69;5115064;28;20050;-79
2021/08/22 06:31:55;;;;;;;19.90;8.50;;;;;;;17.91;68.78;99348.31;5114453;28;20044;-76
2021/08/22 06:34:21;;;;;;;19.17;9.07;;;;;;;17.89;68.83;99347.66;5114670;28;20134;-78
2021/08/22 06:36:48;;;;;;;14.77;8.60;;;;;;;17.90;68.99;99352.00;5115315;28;20104;-81
2021/08/22 06:39:14;;;;;;;13.02;7.35;;;;;;;17.81;69.08;99349.53;5115448;28;20051;-77
2021/08/22 06:41:40;;;;;;;17.38;7.85;;;;;;;17.72;69.79;99346.91;5113603;28;20040;-79
2021/08/22 06:44:05;;;;;;;11.43;6.22;;;;;;;17.72;69.30;99351.41;5115116;28;20103;-83
2021/08/22 06:46:31;;;;;;;14.73;6.68;;;;;;;17.77;69.61;99349.06;5115475;28;20419;-80
2021/08/22 06:48:57;;;;;;;16.50;7.72;;;;;;;17.86;68.83;99356.03;5114217;28;20051;-78
2021/08/22 06:51:23;;;;;;;13.98;7.57;;;;;;;17.88;68.01;99362.06;5114538;28;20044;-76
2021/08/22 06:53:50;;;;;;;15.10;7.72;;;;;;;17.87;68.05;99355.03;5115416;28;20122;-75
2021/08/22 06:56:16;;;;;;;11.73;6.30;;;;;;;17.92;67.53;99360.69;5114418;28;20051;-78
2021/08/22 06:58:41;;;;;;;10.65;6.20;;;;;;;17.94;67.19;99366.75;5114491;28;20464;-77
2021/08/22 07:01:07;;;;;;;13.50;7.65;;;;;;;18.03;67.01;99364.88;5115142;28;20122;-76
2021/08/22 07:03:33;;;;;;;13.52;6.30;;;;;;;18.06;66.61;99366.38;5114772;28;20050;-78
2021/08/22 07:05:59;;;;;;;12.40;5.95;;;;;;;18.06;66.51;99364.50;5114326;28;20078;-78
2021/08/22 07:08:25;;;;;;;11.52;5.07;;;;;;;18.16;66.18;99363.47;5114718;28;20096;-77
2021/08/22 07:10:51;;;;;;;10.68;5.10;;;;;;;18.30;65.46;99365.38;5114494;27;20495;-76
2021/08/22 07:13:17;;;;;;;10.23;5.50;;;;;;;18.57;64.12;99366.72;5113581;28;20047;-79
2021/08/22 07:15:42;;;;;;;13.20;5.00;;;;;;;18.66;63.83;99364.00;5114420;28;20104;-77
2021/08/22 07:18:08;;;;;;;10.18;5.40;;;;;;;18.82;63.37;99366.53;5115085;28;20131;-76
2021/08/22 07:20:34;;;;;;;10.30;4.93;;;;;;;18.88;62.58;99373.88;5114411;28;20051;-78
2021/08/22 07:23:00;;;;;;;8.32;5.00;;;;;;;18.87;62.27;99366.84;5113542;28;20504;-80
2021/08/22 07:25:25;;;;;;;9.55;4.47;;;;;;;19.00;61.31;99376.16;5113961;28;20126;-79
2021/08/22 07:27:51;;;;;;;7.63;3.50;;;;;;;19.05;60.91;99379.09;5114164;28;20131;-82
2021/08/22 07:30:17;;;;;;;14.35;5.13;;;;;;;19.13;59.64;99381.72;5114628;28;20055;-78
2021/08/22 07:32:43;;;;;;;5.97;3.30;;;;;;;19.21;58.44;99378.97;5113298;28;20047;-78
2021/08/22 07:35:09;;;;;;;7.45;3.65;;;;;;;19.47;57.90;99383.06;5114429;28;20448;-77
2021/08/22 07:37:35;;;;;;;6.28;3.28;;;;;;;19.58;57.28;99387.16;5114319;28;20051;-75
2021/08/22 07:40:01;;;;;;;10.75;6.88;;;;;;;19.96;56.40;99386.25;5113947;28;20050;-76
2021/08/22 07:42:26;;;;;;;5.28;3.20;;;;;;;19.86;55.42;99384.69;5113821;28;20039;-79
2021/08/22 07:44:53;;;;;;;4.97;3.30;;;;;;;19.85;55.10;99393.75;5113616;28;20040;-76
2021/08/22 07:47:37;;;;;;;7.47;3.33;;;;;;;19.87;54.98;99391.72;5114026;28;20384;-78
2021/08/22 07:50:04;;;;;;;5.47;3.00;;;;;;;19.96;54.81;99391.63;5113466;28;20035;-78
2021/08/22 07:52:29;;;;;;;9.77;4.05;;;;;;;20.06;54.49;99402.06;5114041;28;20051;-76
2021/08/22 07:54:55;;;;;;;7.32;3.35;;;;;;;20.03;54.50;99400.59;5112857;28;20047;-77
2021/08/22 07:57:21;;;;;;;8.18;3.05;;;;;;;19.77;55.15;99404.56;5113617;28;20036;-82
2021/08/22 07:59:47;;;;;;;10.23;3.45;;;;;;;19.99;55.07;99404.69;5112574;28;20079;-76
2021/08/22 08:02:12;;;;;;;8.95;3.55;;;;;;;20.27;53.83;99409.34;5112579;28;20460;-75
2021/08/22 08:04:38;;;;;;;11.02;4.72;;;;;;;20.50;53.25;99410.03;5113135;28;20180;-81
2021/08/22 08:07:04;;;;;;;9.02;4.32;;;;;;;20.44;52.15;99400.06;5112223;28;20040;-77
2021/08/22 08:09:30;;;;;;;5.80;3.25;;;;;;;20.98;50.86;99406.00;5113379;28;20118;-77
2021/08/22 08:11:58;;;;;;;10.52;4.22;;;;;;;21.57;49.32;99409.38;5113260;28;20044;-77
2021/08/22 08:14:24;;;;;;;6.75;3.30;;;;;;;21.85;48.67;99411.22;5113689;28;20131;-77
2021/08/22 08:16:50;;;;;;;7.55;3.45;;;;;;;21.92;48.51;99406.69;5113096;28;20126;-77
2021/08/22 08:19:16;;;;;;;10.52;5.28;;;;;;;21.80;47.41;99414.50;5112706;28;20519;-78
2021/08/22 08:21:42;;;;;;;6.15;3.42;;;;;;;21.95;47.31;99407.13;5112660;28;20071;-78
2021/08/22 08:24:08;;;;;;;5.90;3.08;;;;;;;21.77;47.42;99417.56;5112805;28;20126;-77
2021/08/22 08:26:34;;;;;;;8.50;3.65;;;;;;;22.24;47.01;99415.13;5111581;28;20384;-80
2021/08/22 08:29:11;;;;;;;5.25;3.60;;;;;;;23.30;44.41;99427.22;5166407;27;20178;-78
2021/08/22 08:31:38;;;;;;;8.75;3.10;;;;;;;23.46;43.51;99425.97;5150989;27;20074;-76
2021/08/22 08:34:04;;;;;;;12.27;5.15;;;;;;;23.63;43.49;99417.41;5150697;27;20050;-76
2021/08/22 08:36:30;;;;;;;6.20;3.15;;;;;;;24.17;42.42;99426.25;5150526;27;20556;-78
2021/08/22 08:38:56;;;;;;;7.90;4.35;;;;;;;24.37;42.12;99423.47;5149464;27;20047;-76
2021/08/22 08:41:22;;;;;;;9.38;4.38;;;;;;;24.26;42.02;99424.94;5150456;27;20102;-81
2021/08/22 08:43:48;;;;;;;8.68;3.78;;;;;;;23.93;42.20;99420.50;5150197;27;20091;-78
2021/08/22 08:46:14;;;;;;;7.82;3.60;;;;;;;23.39;42.94;99428.69;5150676;27;20043;-79
2021/08/22 08:48:55;;;;;;;8.55;4.38;;;;;;;23.18;43.92;99432.41;5131582;27;20089;-78
2021/08/22 08:51:45;;;;;;;7.88;3.92;;;;;;;22.68;44.48;99443.50;5150951;27;20055;-77
2021/08/22 08:54:15;;;;;;;7.57;3.47;;;;;;;22.45;45.48;99450.09;5151235;27;20054;-81
2021/08/22 08:56:46;;;;;;;9.98;3.65;;;;;;;22.43;45.93;99451.28;5151152;27;20046;-77
2021/08/22 08:59:12;;;;;;;10.38;3.70;;;;;;;22.49;45.65;99449.66;5150715;27;20042;-79
2021/08/22 09:01:39;;;;;;;7.38;3.08;;;;;;;22.19;45.28;99455.31;5151703;27;20471;-77
2021/08/22 09:04:12;;;;;;;7.80;3.15;;;;;;;22.32;44.59;99452.69;5150780;27;20054;-80
2021/08/22 09:06:57;;;;;;;7.93;3.67;;;;;;;21.87;45.01;99460.31;5150111;27;20042;-78
2021/08/22 09:10:00;;;;;;;8.13;3.90;;;;;;;21.70;45.79;99462.50;5150705;27;20049;-81
2021/08/22 09:12:38;;;;;;;12.68;5.40;;;;;;;;;;5150232;27;20050;-79
2021/08/22 09:15:44;;;;;;;19.13;8.10;;;;;;;21.43;46.88;99471.16;5149981;27;20146;-80
2021/08/22 09:18:47;;;;;;;6.78;4.03;;;;;;;22.44;44.20;99471.81;5149315;27;20046;-80
2021/08/22 09:21:47;;;;;;;16.88;8.90;;;;;;;22.78;43.19;99476.31;5147968;27;20487;-78
2021/08/22 09:24:31;;;;;;;8.82;3.78;;;;;;;22.66;43.40;99472.53;5149694;27;20061;-79
2021/08/22 09:27:34;;;;;;;8.07;4.13;;;;;;;22.23;44.42;99478.97;5149765;27;20098;-77
2021/08/22 09:30:31;;;;;;;7.88;4.82;;;;;;;21.95;44.97;99477.13;5149011;27;20054;-78
2021/08/22 09:33:54;;;;;;;9.73;3.65;;;;;;;22.21;44.03;99480.19;5149960;27;20461;-78
2021/08/22 09:36:57;;;;;;;5.53;3.03;;;;;;;22.06;44.63;99478.44;5109001;27;20125;-79
2021/08/22 09:39:30;;;;;;;6.57;3.17;;;;;;;21.71;45.21;99485.66;5143423;27;20053;-77
2021/08/22 09:42:33;;;;;;;9.18;3.67;;;;;;;21.77;45.21;99485.72;5136150;27;20488;-79
2021/08/22 09:45:37;;;;;;;6.75;3.83;;;;;;;22.94;43.39;99485.88;5135725;27;20057;-79
2021/08/22 09:48:33;;;;;;;8.52;5.13;;;;;;;23.21;41.70;99490.53;5135371;27;20134;-80
2021/08/22 09:51:38;;;;;;;6.13;3.75;;;;;;;23.25;41.72;99483.66;5134428;27;20046;-77
2021/08/22 09:54:22;;;;;;;11.15;5.28;;;;;;;23.54;40.78;99500.50;5135419;27;20039;-78
2021/08/22 09:57:25;;;;;;;13.00;5.47;;;;;;;24.48;39.45;99490.38;5135241;27;20061;-80
2021/08/22 10:00:06;;;;;;;8.75;4.45;;;;;;;25.18;37.71;99508.56;5133969;27;20441;-79
2021/08/22 10:03:09;;;;;;;14.15;6.70;;;;;;;25.02;36.87;99511.78;5132674;27;20042;-77
2021/08/22 10:05:38;;;;;;;8.48;3.78;;;;;;;25.08;37.04;99515.50;5134831;27;20039;-78
2021/08/22 10:08:15;;;;;;;9.20;4.78;;;;;;;25.68;35.91;99505.09;5134706;27;20408;-77
2021/08/22 10:11:02;;;;;;;6.97;3.95;;;;;;;25.23;36.78;99505.19;5117184;27;20113;-80
2021/08/22 10:13:30;;;;;;;16.98;8.57;;;;;;;25.20;37.18;99508.34;5134336;27;20480;-81
2021/08/22 10:15:55;;;;;;;10.57;3.67;;;;;;;24.58;37.12;99516.16;5135197;27;20046;-78
2021/08/22 10:18:22;;;;;;;12.77;4.72;;;;;;;23.75;39.00;99513.81;5133638;27;20047;-81
2021/08/22 10:20:48;;;;;;;11.35;3.92;;;;;;;24.81;37.19;99516.47;5135100;27;20047;-75
2021/08/22 10:23:38;;;;;;;8.25;4.20;;;;;;;25.21;36.01;99510.00;5135214;27;20046;-79
2021/08/22 10:26:10;;;;;;;12.35;5.35;;;;;;;24.67;36.55;99515.72;5134457;27;20039;-79
2021/08/22 10:28:45;;;;;;;15.20;6.22;;;;;;;24.21;37.48;99516.66;5136316;27;20059;-78
2021/08/22 10:31:12;;;;;;;17.40;6.78;;;;;;;24.01;38.12;99522.09;5135245;27;20468;-79
2021/08/22 10:34:12;;;;;;;16.13;6.68;;;;;;;23.78;38.75;99519.84;5135776;27;20043;-81
2021/08/22 10:36:38;;;;;;;13.73;7.35;;;;;;;23.74;39.13;99519.41;5135439;27;20045;-77
2021/08/22 10:39:23;;;;;;;14.10;6.70;;;;;;;25.03;36.80;99519.69;5134256;27;20055;-79
2021/08/22 10:41:50;;;;;;;17.27;9.48;;;;;;;26.43;35.24;99513.31;5135052;27;20414;-79
2021/08/22 10:44:45;;;;;;;19.08;9.13;;;;;;;26.31;33.81;99522.19;5134546;27;20491;-79
2021/08/22 10:47:13;;;;;;;14.60;9.88;;;;;;;26.47;34.35;99519.97;5050967;28;20447;-78
2021/08/22 10:49:50;;;;;;;12.65;5.55;;;;;;;26.39;33.52;99520.25;5050775;28;20041;-78
2021/08/22 10:52:29;;;;;;;15.95;8.00;;;;;;;26.04;34.22;99520.81;5050449;28;20548;-78
2021/08/22 10:55:14;;;;;;;8.48;3.72;;;;;;;25.12;35.43;99522.13;5050773;28;20583;-80
2021/08/22 10:57:48;;;;;;;10.10;4.45;;;;;;;24.82;35.04;99523.56;5034481;28;20131;-79
2021/08/22 11:00:25;;;;;;;5.82;3.70;;;;;;;24.59;35.77;99521.34;5033567;28;20091;-75
2021/08/22 11:02:53;;;;;;;10.52;5.85;;;;;;;24.51;36.44;99518.84;5050591;28;20044;-79
2021/08/22 11:05:19;;;;;;;;;;;;;;;24.13;37.42;99514.19;5051116;28;20557;-78
2021/08/22 11:07:46;;;;;;;6.20;3.30;;;;;;;24.23;36.75;99520.81;5050493;28;19924;-78
2021/08/22 11:10:15;;;;;;;13.13;3.88;;;;;;;24.57;36.49;99518.00;5040761;28;20411;-78
2021/08/22 11:12:42;;;;;;;10.85;5.50;;;;;;;25.43;35.86;99518.59;5014095;28;20041;-78
2021/08/22 11:15:11;;;;;;;12.20;5.50;;;;;;;25.67;33.99;99510.72;5013828;28;20508;-80
2021/08/22 11:17:36;;;;;;;8.15;4.45;;;;;;;24.96;34.70;99518.06;5013872;28;20323;-77
2021/08/22 11:20:13;;;;;;;13.68;4.13;;;;;;;24.89;34.78;99518.09;5029909;28;20526;-77
2021/08/22 11:22:39;;;;;;;7.80;3.42;;;;;;;24.91;34.39;99520.59;5040192;28;20041;-82
2021/08/22 11:25:07;;;;;;;12.43;7.30;;;;;;;25.25;34.22;99515.81;5113839;28;20044;-77
2021/08/22 11:27:33;;;;;;;12.98;5.50;;;;;;;25.35;33.90;99516.97;5113718;28;20059;-78
2021/08/22 11:30:00;;;;;;;10.30;4.65;;;;;;;25.50;33.69;99513.97;5114151;28;20146;-79
2021/08/22 11:32:28;;;;;;;8.60;5.07;;;;;;;25.41;34.86;99514.47;5113696;28;20769;-79
2021/08/22 11:34:54;;;;;;;6.05;3.00;;;;;;;25.47;33.70;99514.44;5113610;28;20123;-76
2021/08/22 11:37:21;;;;;;;8.73;3.03;;;;;;;25.20;34.07;99524.59;5114129;28;20047;-79